sensor_id;sensor_type;location;lat;lon;timestamp;pressure;altitude;pressure_sealevel;temperature
43292;BMP280;28754;47.700;7.924;2022-08-19T00:00:10;91201.97;;;18.88
43292;BMP280;28754;47.700;7.924;2022-08-19T00:02:57;91203.97;;;18.91
43292;BMP280;28754;47.700;7.924;2022-08-19T00:05:43;91205.16;;;18.93
43292;BMP280;28754;47.700;7.924;2022-08-19T00:08:30;91214.78;;;18.93
43292;BMP280;28754;47.700;7.924;2022-08-19T00:11:18;91208.56;;;18.94
43292;BMP280;28754;47.700;7.924;2022-08-19T00:14:08;91208.56;;;18.94
43292;BMP280;28754;47.700;7.924;2022-08-19T00:16:56;91194.53;;;18.95
43292;BMP280;28754;47.700;7.924;2022-08-19T00:19:42;91199.72;;;18.95
43292;BMP280;28754;47.700;7.924;2022-08-19T00:22:29;91198.47;;;18.92
43292;BMP280;28754;47.700;7.924;2022-08-19T00:25:16;91180.63;;;18.91
43292;BMP280;28754;47.700;7.924;2022-08-19T00:28:04;91199.22;;;18.93
43292;BMP280;28754;47.700;7.924;2022-08-19T00:30:51;91199.22;;;18.93
43292;BMP280;28754;47.700;7.924;2022-08-19T00:33:39;91192.97;;;18.94
43292;BMP280;28754;47.700;7.924;2022-08-19T00:36:26;91195.09;;;18.92
43292;BMP280;28754;47.700;7.924;2022-08-19T00:39:17;91190.53;;;18.89
43292;BMP280;28754;47.700;7.924;2022-08-19T00:42:04;91182.31;;;18.87
43292;BMP280;28754;47.700;7.924;2022-08-19T00:44:52;91183.06;;;18.88
43292;BMP280;28754;47.700;7.924;2022-08-19T00:47:39;91184.72;;;18.92
43292;BMP280;28754;47.700;7.924;2022-08-19T00:50:26;91177.13;;;18.95
43292;BMP280;28754;47.700;7.924;2022-08-19T00:53:19;91178.78;;;19.00
43292;BMP280;28754;47.700;7.924;2022-08-19T00:56:06;91188.53;;;19.03
43292;BMP280;28754;47.700;7.924;2022-08-19T00:58:56;91175.25;;;19.04
43292;BMP280;28754;47.700;7.924;2022-08-19T01:01:45;91178.75;;;19.08
43292;BMP280;28754;47.700;7.924;2022-08-19T01:04:32;91181.47;;;19.12
43292;BMP280;28754;47.700;7.924;2022-08-19T01:07:19;91182.25;;;19.12
43292;BMP280;28754;47.700;7.924;2022-08-19T01:10:13;91180.69;;;19.11
43292;BMP280;28754;47.700;7.924;2022-08-19T01:13:02;91179.19;;;19.10
43292;BMP280;28754;47.700;7.924;2022-08-19T01:15:55;91183.31;;;19.11
43292;BMP280;28754;47.700;7.924;2022-08-19T01:18:43;91183.31;;;19.11
43292;BMP280;28754;47.700;7.924;2022-08-19T01:21:42;91178.88;;;19.12
43292;BMP280;28754;47.700;7.924;2022-08-19T01:24:32;91173.56;;;19.08
43292;BMP280;28754;47.700;7.924;2022-08-19T01:27:19;91170.97;;;19.08
43292;BMP280;28754;47.700;7.924;2022-08-19T01:30:08;91170.66;;;19.10
43292;BMP280;28754;47.700;7.924;2022-08-19T01:32:55;91173.09;;;19.06
43292;BMP280;28754;47.700;7.924;2022-08-19T01:35:42;91170.50;;;19.06
43292;BMP280;28754;47.700;7.924;2022-08-19T01:38:29;91161.50;;;19.04
43292;BMP280;28754;47.700;7.924;2022-08-19T01:41:18;91156.00;;;19.05
43292;BMP280;28754;47.700;7.924;2022-08-19T01:44:07;91156.31;;;19.04
43292;BMP280;28754;47.700;7.924;2022-08-19T01:46:54;91152.06;;;18.99
43292;BMP280;28754;47.700;7.924;2022-08-19T01:49:41;91161.38;;;19.00
43292;BMP280;28754;47.700;7.924;2022-08-19T01:52:28;91163.22;;;19.00
43292;BMP280;28754;47.700;7.924;2022-08-19T01:55:19;91169.44;;;18.99
43292;BMP280;28754;47.700;7.924;2022-08-19T01:58:12;91164.25;;;18.99
43292;BMP280;28754;47.700;7.924;2022-08-19T02:01:00;91164.25;;;18.99
43292;BMP280;28754;47.700;7.924;2022-08-19T02:03:47;91161.66;;;18.99
43292;BMP280;28754;47.700;7.924;2022-08-19T02:06:34;91168.41;;;19.00
43292;BMP280;28754;47.700;7.924;2022-08-19T02:09:20;91166.84;;;18.99
43292;BMP280;28754;47.700;7.924;2022-08-19T02:12:07;91164.13;;;18.95
43292;BMP280;28754;47.700;7.924;2022-08-19T02:14:55;91158.19;;;18.95
43292;BMP280;28754;47.700;7.924;2022-08-19T02:17:42;91166.44;;;18.97
43292;BMP280;28754;47.700;7.924;2022-08-19T02:20:29;91169.78;;;18.97
43292;BMP280;28754;47.700;7.924;2022-08-19T02:23:16;91176.03;;;18.96
43292;BMP280;28754;47.700;7.924;2022-08-19T02:26:03;91173.75;;;18.95
43292;BMP280;28754;47.700;7.924;2022-08-19T02:28:50;91180.63;;;18.91
43292;BMP280;28754;47.700;7.924;2022-08-19T02:31:37;91177.13;;;18.87
43292;BMP280;28754;47.700;7.924;2022-08-19T02:34:24;91170.41;;;18.86
43292;BMP280;28754;47.700;7.924;2022-08-19T02:37:11;91159.13;;;18.82
43292;BMP280;28754;47.700;7.924;2022-08-19T02:40:18;91160.66;;;18.75
43292;BMP280;28754;47.700;7.924;2022-08-19T02:43:08;91167.25;;;18.72
43292;BMP280;28754;47.700;7.924;2022-08-19T02:45:55;91171.66;;;18.72
43292;BMP280;28754;47.700;7.924;2022-08-19T02:48:41;91167.41;;;18.67
43292;BMP280;28754;47.700;7.924;2022-08-19T02:51:36;91176.25;;;18.66
43292;BMP280;28754;47.700;7.924;2022-08-19T02:54:22;91177.78;;;18.67
43292;BMP280;28754;47.700;7.924;2022-08-19T02:57:10;91180.06;;;18.69
43292;BMP280;28754;47.700;7.924;2022-08-19T02:59:57;91174.25;;;18.72
43292;BMP280;28754;47.700;7.924;2022-08-19T03:02:43;91186.59;;;18.75
43292;BMP280;28754;47.700;7.924;2022-08-19T03:05:30;91180.47;;;18.79
43292;BMP280;28754;47.700;7.924;2022-08-19T03:08:17;91183.53;;;18.81
43292;BMP280;28754;47.700;7.924;2022-08-19T03:11:04;91183.53;;;18.81
43292;BMP280;28754;47.700;7.924;2022-08-19T03:13:52;91180.63;;;18.83
43292;BMP280;28754;47.700;7.924;2022-08-19T03:16:50;91187.22;;;18.80
43292;BMP280;28754;47.700;7.924;2022-08-19T03:19:37;91189.34;;;18.78
43292;BMP280;28754;47.700;7.924;2022-08-19T03:22:24;91188.72;;;18.81
43292;BMP280;28754;47.700;7.924;2022-08-19T03:25:11;91191.66;;;18.80
43292;BMP280;28754;47.700;7.924;2022-08-19T03:27:58;91198.63;;;18.79
43292;BMP280;28754;47.700;7.924;2022-08-19T03:31:10;91205.38;;;18.80
43292;BMP280;28754;47.700;7.924;2022-08-19T03:33:57;91212.06;;;18.81
43292;BMP280;28754;47.700;7.924;2022-08-19T03:36:45;91205.81;;;18.82
43292;BMP280;28754;47.700;7.924;2022-08-19T03:39:32;91215.13;;;18.83
43292;BMP280;28754;47.700;7.924;2022-08-19T03:42:19;91211.78;;;18.83
43292;BMP280;28754;47.700;7.924;2022-08-19T03:45:06;91205.81;;;18.82
43292;BMP280;28754;47.700;7.924;2022-08-19T03:47:53;91209.03;;;18.79
43292;BMP280;28754;47.700;7.924;2022-08-19T03:50:41;91212.53;;;18.75
43292;BMP280;28754;47.700;7.924;2022-08-19T03:53:29;91204.63;;;18.71
43292;BMP280;28754;47.700;7.924;2022-08-19T03:56:17;91199.59;;;18.66
43292;BMP280;28754;47.700;7.924;2022-08-19T03:59:07;91195.50;;;18.65
43292;BMP280;28754;47.700;7.924;2022-08-19T04:01:57;91185.72;;;18.62
43292;BMP280;28754;47.700;7.924;2022-08-19T04:04:44;91186.34;;;18.59
43292;BMP280;28754;47.700;7.924;2022-08-19T04:07:31;91181.16;;;18.59
43292;BMP280;28754;47.700;7.924;2022-08-19T04:10:18;91185.59;;;18.59
43292;BMP280;28754;47.700;7.924;2022-08-19T04:13:04;91192.44;;;18.55
43292;BMP280;28754;47.700;7.924;2022-08-19T04:15:53;91192.28;;;18.52
43292;BMP280;28754;47.700;7.924;2022-08-19T04:18:40;91198.09;;;18.49
43292;BMP280;28754;47.700;7.924;2022-08-19T04:21:27;91201.31;;;18.46
43292;BMP280;28754;47.700;7.924;2022-08-19T04:24:15;91207.41;;;18.50
43292;BMP280;28754;47.700;7.924;2022-08-19T04:27:03;91195.22;;;18.50
43292;BMP280;28754;47.700;7.924;2022-08-19T04:29:50;91208.75;;;18.56
43292;BMP280;28754;47.700;7.924;2022-08-19T04:32:37;91215.94;;;18.58
43292;BMP280;28754;47.700;7.924;2022-08-19T04:35:23;91210.75;;;18.58
43292;BMP280;28754;47.700;7.924;2022-08-19T04:38:11;91212.91;;;18.57
43292;BMP280;28754;47.700;7.924;2022-08-19T04:40:58;91216.09;;;18.54
43292;BMP280;28754;47.700;7.924;2022-08-19T04:44:04;91225.41;;;18.55
43292;BMP280;28754;47.700;7.924;2022-08-19T04:46:51;91223.09;;;18.53
43292;BMP280;28754;47.700;7.924;2022-08-19T04:49:39;91223.09;;;18.53
43292;BMP280;28754;47.700;7.924;2022-08-19T04:52:25;91226.00;;;18.52
43292;BMP280;28754;47.700;7.924;2022-08-19T04:55:13;91230.72;;;18.50
43292;BMP280;28754;47.700;7.924;2022-08-19T04:58:00;91229.38;;;18.52
43292;BMP280;28754;47.700;7.924;2022-08-19T05:00:47;91232.72;;;18.53
43292;BMP280;28754;47.700;7.924;2022-08-19T05:03:34;91232.84;;;18.56
43292;BMP280;28754;47.700;7.924;2022-08-19T05:06:22;91230.72;;;18.58
43292;BMP280;28754;47.700;7.924;2022-08-19T05:09:09;91236.06;;;18.61
43292;BMP280;28754;47.700;7.924;2022-08-19T05:11:56;91232.38;;;18.62
43292;BMP280;28754;47.700;7.924;2022-08-19T05:14:43;91236.22;;;18.65
43292;BMP280;28754;47.700;7.924;2022-08-19T05:17:31;91226.91;;;18.64
43292;BMP280;28754;47.700;7.924;2022-08-19T05:20:18;91235.44;;;18.64
43292;BMP280;28754;47.700;7.924;2022-08-19T05:23:23;91236.53;;;18.63
43292;BMP280;28754;47.700;7.924;2022-08-19T05:26:10;91246.44;;;18.61
43292;BMP280;28754;47.700;7.924;2022-08-19T05:28:57;91260.03;;;18.58
43292;BMP280;28754;47.700;7.924;2022-08-19T05:31:46;91248.00;;;18.54
43292;BMP280;28754;47.700;7.924;2022-08-19T05:34:33;91257.28;;;18.55
43292;BMP280;28754;47.700;7.924;2022-08-19T05:37:19;91262.47;;;18.55
43292;BMP280;28754;47.700;7.924;2022-08-19T05:40:08;91271.16;;;18.59
43292;BMP280;28754;47.700;7.924;2022-08-19T05:42:55;91268.28;;;18.60
43292;BMP280;28754;47.700;7.924;2022-08-19T05:45:42;91261.25;;;18.61
43292;BMP280;28754;47.700;7.924;2022-08-19T05:48:29;91255.91;;;18.57
43292;BMP280;28754;47.700;7.924;2022-08-19T05:51:16;91259.13;;;18.55
43292;BMP280;28754;47.700;7.924;2022-08-19T05:54:05;91264.31;;;18.55
43292;BMP280;28754;47.700;7.924;2022-08-19T05:56:53;91269.50;;;18.55
43292;BMP280;28754;47.700;7.924;2022-08-19T05:59:40;91267.81;;;18.58
43292;BMP280;28754;47.700;7.924;2022-08-19T06:02:28;91279.22;;;18.57
43292;BMP280;28754;47.700;7.924;2022-08-19T06:05:16;91280.44;;;18.52
43292;BMP280;28754;47.700;7.924;2022-08-19T06:08:03;91275.13;;;18.48
43292;BMP280;28754;47.700;7.924;2022-08-19T06:10:50;91279.09;;;18.46
43292;BMP280;28754;47.700;7.924;2022-08-19T06:13:37;91269.66;;;18.41
43292;BMP280;28754;47.700;7.924;2022-08-19T06:16:24;91283.97;;;18.39
43292;BMP280;28754;47.700;7.924;2022-08-19T06:19:16;91276.50;;;18.37
43292;BMP280;28754;47.700;7.924;2022-08-19T06:22:03;91273.59;;;18.39
43292;BMP280;28754;47.700;7.924;2022-08-19T06:24:50;91266.59;;;18.39
43292;BMP280;28754;47.700;7.924;2022-08-19T06:27:39;91266.44;;;18.36
43292;BMP280;28754;47.700;7.924;2022-08-19T06:30:26;91261.88;;;18.33
43292;BMP280;28754;47.700;7.924;2022-08-19T06:33:13;91266.59;;;18.31
43292;BMP280;28754;47.700;7.924;2022-08-19T06:36:00;91263.53;;;18.29
43292;BMP280;28754;47.700;7.924;2022-08-19T06:38:47;91266.72;;;18.26
43292;BMP280;28754;47.700;7.924;2022-08-19T06:41:41;91271.44;;;18.24
43292;BMP280;28754;47.700;7.924;2022-08-19T06:44:37;91265.50;;;18.23
43292;BMP280;28754;47.700;7.924;2022-08-19T06:47:25;91262.63;;;18.25
43292;BMP280;28754;47.700;7.924;2022-08-19T06:50:11;91270.09;;;18.26
43292;BMP280;28754;47.700;7.924;2022-08-19T06:52:59;91272.38;;;18.28
43292;BMP280;28754;47.700;7.924;2022-08-19T06:55:46;91283.66;;;18.32
43292;BMP280;28754;47.700;7.924;2022-08-19T06:58:32;91281.53;;;18.34
43292;BMP280;28754;47.700;7.924;2022-08-19T07:01:20;91283.97;;;18.39
43292;BMP280;28754;47.700;7.924;2022-08-19T07:04:08;91289.94;;;18.39
43292;BMP280;28754;47.700;7.924;2022-08-19T07:07:08;91287.63;;;18.38
43292;BMP280;28754;47.700;7.924;2022-08-19T07:09:56;91290.53;;;18.36
43292;BMP280;28754;47.700;7.924;2022-08-19T07:12:42;91296.91;;;18.39
43292;BMP280;28754;47.700;7.924;2022-08-19T07:15:29;91291.75;;;18.39
43292;BMP280;28754;47.700;7.924;2022-08-19T07:18:19;91295.56;;;18.41
43292;BMP280;28754;47.700;7.924;2022-08-19T07:21:11;91308.22;;;18.43
43292;BMP280;28754;47.700;7.924;2022-08-19T07:23:59;91302.91;;;18.48
43292;BMP280;28754;47.700;7.924;2022-08-19T07:26:46;91300.72;;;18.50
43292;BMP280;28754;47.700;7.924;2022-08-19T07:29:35;91311.09;;;18.50
43292;BMP280;28754;47.700;7.924;2022-08-19T07:32:22;91318.59;;;18.51
43292;BMP280;28754;47.700;7.924;2022-08-19T07:35:09;91318.00;;;18.54
43292;BMP280;28754;47.700;7.924;2022-08-19T07:37:56;91313.56;;;18.55
43292;BMP280;28754;47.700;7.924;2022-08-19T07:40:44;91316.16;;;18.55
43292;BMP280;28754;47.700;7.924;2022-08-19T07:43:32;91316.16;;;18.55
43292;BMP280;28754;47.700;7.924;2022-08-19T07:46:20;91308.97;;;18.52
43292;BMP280;28754;47.700;7.924;2022-08-19T07:49:08;91315.06;;;18.47
43292;BMP280;28754;47.700;7.924;2022-08-19T07:52:06;91314.03;;;18.48
43292;BMP280;28754;47.700;7.924;2022-08-19T07:54:53;91302.72;;;18.44
43292;BMP280;28754;47.700;7.924;2022-08-19T07:57:39;91312.34;;;18.44
43292;BMP280;28754;47.700;7.924;2022-08-19T08:00:26;91317.66;;;18.47
43292;BMP280;28754;47.700;7.924;2022-08-19T08:03:16;91324.53;;;18.52
43292;BMP280;28754;47.700;7.924;2022-08-19T08:06:03;91334.16;;;18.51
43292;BMP280;28754;47.700;7.924;2022-08-19T08:09:09;91324.53;;;18.52
43292;BMP280;28754;47.700;7.924;2022-08-19T08:12:16;91332.00;;;18.53
43292;BMP280;28754;47.700;7.924;2022-08-19T08:15:11;91327.59;;;18.54
43292;BMP280;28754;47.700;7.924;2022-08-19T08:17:58;91328.97;;;18.51
43292;BMP280;28754;47.700;7.924;2022-08-19T08:20:44;91331.25;;;18.53
43292;BMP280;28754;47.700;7.924;2022-08-19T08:23:31;91334.31;;;18.55
43292;BMP280;28754;47.700;7.924;2022-08-19T08:26:18;91341.00;;;18.56
43292;BMP280;28754;47.700;7.924;2022-08-19T08:29:05;91330.63;;;18.56
43292;BMP280;28754;47.700;7.924;2022-08-19T08:31:54;91336.00;;;18.59
43292;BMP280;28754;47.700;7.924;2022-08-19T08:34:41;91341.31;;;18.62
43292;BMP280;28754;47.700;7.924;2022-08-19T08:37:28;91338.28;;;18.60
43292;BMP280;28754;47.700;7.924;2022-08-19T08:40:38;91349.41;;;18.61
43292;BMP280;28754;47.700;7.924;2022-08-19T08:43:38;91349.72;;;18.59
43292;BMP280;28754;47.700;7.924;2022-08-19T08:46:57;91358.41;;;18.63
43292;BMP280;28754;47.700;7.924;2022-08-19T08:49:58;91371.69;;;18.62
43292;BMP280;28754;47.700;7.924;2022-08-19T08:52:52;91369.09;;;18.62
43292;BMP280;28754;47.700;7.924;2022-08-19T08:55:40;91371.69;;;18.62
43292;BMP280;28754;47.700;7.924;2022-08-19T08:58:54;91378.25;;;18.59
43292;BMP280;28754;47.700;7.924;2022-08-19T09:01:43;91379.31;;;18.58
43292;BMP280;28754;47.700;7.924;2022-08-19T09:04:29;91385.41;;;18.54
43292;BMP280;28754;47.700;7.924;2022-08-19T09:10:55;91384.63;;;18.54
43292;BMP280;28754;47.700;7.924;2022-08-19T09:14:08;91396.69;;;18.58
43292;BMP280;28754;47.700;7.924;2022-08-19T09:16:59;91386.03;;;18.59
43292;BMP280;28754;47.700;7.924;2022-08-19T09:19:57;91390.28;;;18.64
43292;BMP280;28754;47.700;7.924;2022-08-19T09:22:44;91394.72;;;18.63
43292;BMP280;28754;47.700;7.924;2022-08-19T09:25:31;91399.28;;;18.66
43292;BMP280;28754;47.700;7.924;2022-08-19T09:28:20;91409.84;;;18.70
43292;BMP280;28754;47.700;7.924;2022-08-19T09:31:07;91406.94;;;18.71
43292;BMP280;28754;47.700;7.924;2022-08-19T09:33:54;91412.28;;;18.75
43292;BMP280;28754;47.700;7.924;2022-08-19T09:36:43;91413.81;;;18.76
43292;BMP280;28754;47.700;7.924;2022-08-19T09:39:30;91416.88;;;18.78
43292;BMP280;28754;47.700;7.924;2022-08-19T09:42:17;91411.34;;;18.79
43292;BMP280;28754;47.700;7.924;2022-08-19T09:45:04;91408.16;;;18.82
43292;BMP280;28754;47.700;7.924;2022-08-19T09:47:52;91418.22;;;18.84
43292;BMP280;28754;47.700;7.924;2022-08-19T09:50:39;91415.78;;;18.87
43292;BMP280;28754;47.700;7.924;2022-08-19T09:53:26;91424.78;;;18.90
43292;BMP280;28754;47.700;7.924;2022-08-19T09:56:13;91424.34;;;18.88
43292;BMP280;28754;47.700;7.924;2022-08-19T09:59:02;91426.94;;;18.88
43292;BMP280;28754;47.700;7.924;2022-08-19T10:01:50;91426.16;;;18.87
43292;BMP280;28754;47.700;7.924;2022-08-19T10:04:37;91430.44;;;18.83
43292;BMP280;28754;47.700;7.924;2022-08-19T10:07:42;91421.72;;;18.79
43292;BMP280;28754;47.700;7.924;2022-08-19T10:10:29;91425.25;;;18.75
43292;BMP280;28754;47.700;7.924;2022-08-19T10:13:22;91421.72;;;18.79
43292;BMP280;28754;47.700;7.924;2022-08-19T10:16:18;91436.72;;;18.82
43292;BMP280;28754;47.700;7.924;2022-08-19T10:19:06;91428.59;;;18.75
43292;BMP280;28754;47.700;7.924;2022-08-19T10:21:53;91429.50;;;18.71
43292;BMP280;28754;47.700;7.924;2022-08-19T10:24:40;91435.47;;;18.71
43292;BMP280;28754;47.700;7.924;2022-08-19T10:27:27;91437.59;;;18.69
43292;BMP280;28754;47.700;7.924;2022-08-19T10:30:14;91434.69;;;18.71
43292;BMP280;28754;47.700;7.924;2022-08-19T10:33:01;91435.63;;;18.75
43292;BMP280;28754;47.700;7.924;2022-08-19T10:35:47;91441.44;;;18.80
43292;BMP280;28754;47.700;7.924;2022-08-19T10:38:36;91435.50;;;18.80
43292;BMP280;28754;47.700;7.924;2022-08-19T10:41:29;91433.19;;;18.78
43292;BMP280;28754;47.700;7.924;2022-08-19T10:44:16;91433.47;;;18.77
43292;BMP280;28754;47.700;7.924;2022-08-19T10:47:05;91429.38;;;18.76
43292;BMP280;28754;47.700;7.924;2022-08-19T10:49:53;91428.75;;;18.79
43292;BMP280;28754;47.700;7.924;2022-08-19T10:53:05;91434.13;;;18.82
43292;BMP280;28754;47.700;7.924;2022-08-19T10:55:52;91439.44;;;18.86
43292;BMP280;28754;47.700;7.924;2022-08-19T10:58:57;91439.59;;;18.89
43292;BMP280;28754;47.700;7.924;2022-08-19T11:01:45;91442.66;;;18.91
43292;BMP280;28754;47.700;7.924;2022-08-19T11:04:32;91436.25;;;18.89
43292;BMP280;28754;47.700;7.924;2022-08-19T11:07:19;91446.31;;;18.90
43292;BMP280;28754;47.700;7.924;2022-08-19T11:10:11;91442.81;;;18.86
43292;BMP280;28754;47.700;7.924;2022-08-19T11:12:58;91441.56;;;18.84
43292;BMP280;28754;47.700;7.924;2022-08-19T11:15:46;91443.56;;;18.87
43292;BMP280;28754;47.700;7.924;2022-08-19T11:18:38;91447.84;;;18.91
43292;BMP280;28754;47.700;7.924;2022-08-19T11:21:36;91445.25;;;18.91
43292;BMP280;28754;47.700;7.924;2022-08-19T11:24:25;91445.72;;;18.93
43292;BMP280;28754;47.700;7.924;2022-08-19T11:27:12;91454.13;;;18.98
43292;BMP280;28754;47.700;7.924;2022-08-19T11:30:00;91454.13;;;18.98
43292;BMP280;28754;47.700;7.924;2022-08-19T11:32:47;91461.63;;;19.00
43292;BMP280;28754;47.700;7.924;2022-08-19T11:35:38;91452.75;;;19.01
43292;BMP280;28754;47.700;7.924;2022-08-19T11:38:26;91452.00;;;19.00
43292;BMP280;28754;47.700;7.924;2022-08-19T11:41:14;91463.91;;;19.01
43292;BMP280;28754;47.700;7.924;2022-08-19T11:44:02;91453.84;;;19.00
43292;BMP280;28754;47.700;7.924;2022-08-19T11:46:49;91459.03;;;19.00
43292;BMP280;28754;47.700;7.924;2022-08-19T11:49:36;91462.53;;;19.04
43292;BMP280;28754;47.700;7.924;2022-08-19T11:52:22;91473.50;;;19.01
43292;BMP280;28754;47.700;7.924;2022-08-19T11:55:09;91463.91;;;19.01
43292;BMP280;28754;47.700;7.924;2022-08-19T11:57:56;91462.84;;;19.02
43292;BMP280;28754;47.700;7.924;2022-08-19T12:00:43;91470.47;;;19.07
43292;BMP280;28754;47.700;7.924;2022-08-19T12:03:31;91471.09;;;19.13
43292;BMP280;28754;47.700;7.924;2022-08-19T12:06:31;91460.09;;;19.16
43292;BMP280;28754;47.700;7.924;2022-08-19T12:09:18;91462.69;;;19.24
43292;BMP280;28754;47.700;7.924;2022-08-19T12:12:06;91454.91;;;19.32
43292;BMP280;28754;47.700;7.924;2022-08-19T12:14:53;91456.72;;;19.40
43292;BMP280;28754;47.700;7.924;2022-08-19T12:17:43;91459.47;;;19.52
43292;BMP280;28754;47.700;7.924;2022-08-19T12:20:29;91460.38;;;19.56
43292;BMP280;28754;47.700;7.924;2022-08-19T12:23:16;91461.28;;;19.60
43292;BMP280;28754;47.700;7.924;2022-08-19T12:26:04;91453.31;;;19.65
43292;BMP280;28754;47.700;7.924;2022-08-19T12:28:51;91458.69;;;19.68
43292;BMP280;28754;47.700;7.924;2022-08-19T12:31:39;91474.09;;;19.73
43292;BMP280;28754;47.700;7.924;2022-08-19T12:34:28;91470.75;;;19.73
43292;BMP280;28754;47.700;7.924;2022-08-19T12:37:16;91467.69;;;19.71
43292;BMP280;28754;47.700;7.924;2022-08-19T12:40:04;91465.38;;;19.69
43292;BMP280;28754;47.700;7.924;2022-08-19T12:42:54;91464.03;;;19.72
43292;BMP280;28754;47.700;7.924;2022-08-19T12:45:42;91464.50;;;19.74
43292;BMP280;28754;47.700;7.924;2022-08-19T12:48:31;91472.72;;;19.76
43292;BMP280;28754;47.700;7.924;2022-08-19T12:51:18;91473.66;;;19.80
43292;BMP280;28754;47.700;7.924;2022-08-19T12:54:06;91471.50;;;19.82
43292;BMP280;28754;47.700;7.924;2022-08-19T12:56:53;91464.94;;;19.84
43292;BMP280;28754;47.700;7.924;2022-08-19T12:59:40;91477.31;;;19.87
43292;BMP280;28754;47.700;7.924;2022-08-19T13:02:28;91467.84;;;19.83
43292;BMP280;28754;47.700;7.924;2022-08-19T13:05:19;91474.09;;;19.82
43292;BMP280;28754;47.700;7.924;2022-08-19T13:08:07;91478.25;;;19.74
43292;BMP280;28754;47.700;7.924;2022-08-19T13:10:54;91482.97;;;19.64
43292;BMP280;28754;47.700;7.924;2022-08-19T13:13:43;91475.34;;;19.59
43292;BMP280;28754;47.700;7.924;2022-08-19T13:16:30;91474.56;;;19.59
43292;BMP280;28754;47.700;7.924;2022-08-19T13:19:17;91476.88;;;19.60
43292;BMP280;28754;47.700;7.924;2022-08-19T13:22:10;91473.22;;;19.61
43292;BMP280;28754;47.700;7.924;2022-08-19T13:24:58;91473.22;;;19.61
43292;BMP280;28754;47.700;7.924;2022-08-19T13:27:45;91475.19;;;19.64
43292;BMP280;28754;47.700;7.924;2022-08-19T13:30:32;91461.13;;;19.65
43292;BMP280;28754;47.700;7.924;2022-08-19T13:33:38;91466.78;;;19.67
43292;BMP280;28754;47.700;7.924;2022-08-19T13:36:26;91463.72;;;19.65
43292;BMP280;28754;47.700;7.924;2022-08-19T13:39:12;91465.72;;;19.60
43292;BMP280;28754;47.700;7.924;2022-08-19T13:42:00;91476.59;;;19.53
43292;BMP280;28754;47.700;7.924;2022-08-19T13:44:47;91476.13;;;19.43
43292;BMP280;28754;47.700;7.924;2022-08-19T13:47:35;91460.09;;;19.32
43292;BMP280;28754;47.700;7.924;2022-08-19T13:50:26;91464.38;;;19.28
43292;BMP280;28754;47.700;7.924;2022-08-19T13:53:15;91471.41;;;19.28
43292;BMP280;28754;47.700;7.924;2022-08-19T13:56:06;91467.41;;;19.30
43292;BMP280;28754;47.700;7.924;2022-08-19T13:58:53;91467.59;;;19.34
43292;BMP280;28754;47.700;7.924;2022-08-19T14:01:40;91468.63;;;19.33
43292;BMP280;28754;47.700;7.924;2022-08-19T14:04:28;91473.53;;;19.34
43292;BMP280;28754;47.700;7.924;2022-08-19T14:07:14;91478.09;;;19.37
43292;BMP280;28754;47.700;7.924;2022-08-19T14:10:03;91472.31;;;19.40
43292;BMP280;28754;47.700;7.924;2022-08-19T14:12:55;91475.50;;;19.37
43292;BMP280;28754;47.700;7.924;2022-08-19T14:15:41;91479.66;;;19.38
43292;BMP280;28754;47.700;7.924;2022-08-19T14:18:28;91481.50;;;19.38
43292;BMP280;28754;47.700;7.924;2022-08-19T14:21:20;91483.63;;;19.36
43292;BMP280;28754;47.700;7.924;2022-08-19T14:24:08;91491.09;;;19.37
43292;BMP280;28754;47.700;7.924;2022-08-19T14:26:54;91483.47;;;19.41
43292;BMP280;28754;47.700;7.924;2022-08-19T14:29:41;91483.75;;;19.48
43292;BMP280;28754;47.700;7.924;2022-08-19T14:32:28;91489.69;;;19.57
43292;BMP280;28754;47.700;7.924;2022-08-19T14:35:16;91485.59;;;19.64
43292;BMP280;28754;47.700;7.924;2022-08-19T14:38:05;91491.06;;;19.71
43292;BMP280;28754;47.700;7.924;2022-08-19T14:40:52;91486.97;;;19.78
43292;BMP280;28754;47.700;7.924;2022-08-19T14:43:39;91482.66;;;19.91
43292;BMP280;28754;47.700;7.924;2022-08-19T14:46:28;91485.19;;;20.16
43292;BMP280;28754;47.700;7.924;2022-08-19T14:49:15;91497.53;;;20.27
43292;BMP280;28754;47.700;7.924;2022-08-19T14:52:02;91484.97;;;20.29
43292;BMP280;28754;47.700;7.924;2022-08-19T14:54:49;91479.50;;;20.22
43292;BMP280;28754;47.700;7.924;2022-08-19T14:57:36;91486.84;;;20.20
43292;BMP280;28754;47.700;7.924;2022-08-19T15:00:23;91482.59;;;20.16
43292;BMP280;28754;47.700;7.924;2022-08-19T15:03:10;91491.81;;;19.96
43292;BMP280;28754;47.700;7.924;2022-08-19T15:06:01;91506.81;;;19.74
43292;BMP280;28754;47.700;7.924;2022-08-19T15:08:48;91495.50;;;19.62
43292;BMP280;28754;47.700;7.924;2022-08-19T15:11:37;91501.00;;;19.44
43292;BMP280;28754;47.700;7.924;2022-08-19T15:14:26;91512.19;;;19.27
43292;BMP280;28754;47.700;7.924;2022-08-19T15:17:13;91513.53;;;19.17
43292;BMP280;28754;47.700;7.924;2022-08-19T15:20:00;91516.13;;;19.08
43292;BMP280;28754;47.700;7.924;2022-08-19T15:22:48;91506.50;;;19.09
43292;BMP280;28754;47.700;7.924;2022-08-19T15:25:34;91506.69;;;19.21
43292;BMP280;28754;47.700;7.924;2022-08-19T15:28:23;91515.22;;;19.29
43292;BMP280;28754;47.700;7.924;2022-08-19T15:31:12;91522.56;;;19.44
43292;BMP280;28754;47.700;7.924;2022-08-19T15:33:58;91517.97;;;19.58
43292;BMP280;28754;47.700;7.924;2022-08-19T15:36:45;91516.00;;;19.72
43292;BMP280;28754;47.700;7.924;2022-08-19T15:39:32;91514.47;;;19.79
43292;BMP280;28754;47.700;7.924;2022-08-19T15:42:19;91513.84;;;19.82
43292;BMP280;28754;47.700;7.924;2022-08-19T15:45:07;91512.47;;;19.76
43292;BMP280;28754;47.700;7.924;2022-08-19T15:47:55;91515.19;;;19.71
43292;BMP280;28754;47.700;7.924;2022-08-19T15:50:42;91518.25;;;19.73
43292;BMP280;28754;47.700;7.924;2022-08-19T15:53:28;91506.50;;;19.76
43292;BMP280;28754;47.700;7.924;2022-08-19T15:56:16;91515.22;;;19.80
43292;BMP280;28754;47.700;7.924;2022-08-19T15:59:02;91517.22;;;19.83
43292;BMP280;28754;47.700;7.924;2022-08-19T16:02:08;91514.00;;;19.86
43292;BMP280;28754;47.700;7.924;2022-08-19T16:05:18;91509.88;;;19.85
43292;BMP280;28754;47.700;7.924;2022-08-19T16:08:24;91508.34;;;19.84
43292;BMP280;28754;47.700;7.924;2022-08-19T16:11:16;91509.88;;;19.85
43292;BMP280;28754;47.700;7.924;2022-08-19T16:14:06;91507.59;;;19.83
43292;BMP280;28754;47.700;7.924;2022-08-19T16:16:54;91515.09;;;19.85